San Fermin Berria — EBVW — position and weather

sailwx.info

Track history (hours):
 
Tides and Currents Weather Stations Pressure Air Temp Water Temp Dewpoint Dewpoint Depression Visibility Wind Speed Wind Dir Waves Ship Positions

San Fermin Berria

Last reported at 2015-Apr-17 18:32 UTC. Time now 2015-Apr-19 07:55 UTC.
Position N 43°23' W 001°47'.

Length 30 m.

Type: Fishing. MMSI: 224114650.

Date/timePositionNaut miles runAvg speedWind from/ knotsBaromVisibWave heightAir tempDewpointWater temp
2015-Apr-17 18:32N 43°23' W 001°47'0 0.1
2015-Apr-17 17:33N 43°23' W 001°47'0 0.0
2015-Apr-17 16:33N 43°23' W 001°47'0 0.1
2015-Apr-17 15:33N 43°23' W 001°48'0 0.0
2015-Apr-17 14:33N 43°23' W 001°48'0 0.2
2015-Apr-17 13:33N 43°23' W 001°47'1110.8
2015-Apr-17 12:33N 43°34' W 001°47'6410.4
2015-Apr-17 06:25N 44°38' W 001°43'1 0.7
2015-Apr-17 05:33N 44°38' W 001°44'1 0.6
2015-Apr-17 04:33N 44°38' W 001°45'0 0.3
2015-Apr-17 03:33N 44°38' W 001°45'11 2.1
2015-Apr-16 22:33N 44°28' W 001°41'4510.3
2015-Apr-16 18:09N 43°42' W 001°46'610.4
2015-Apr-16 17:32N 43°36' W 001°46'1110.4
2015-Apr-16 16:31N 43°25' W 001°47'2 2.5
2015-Apr-16 15:33N 43°23' W 001°48'0 0.0
2015-Apr-16 14:33N 43°23' W 001°48'0 0.0
2015-Apr-16 13:33N 43°23' W 001°48'0 0.0
2015-Apr-16 12:33N 43°23' W 001°48'9 8.7
2015-Apr-16 11:33N 43°32' W 001°46'2611.2
2015-Apr-16 09:11N 43°58' W 001°43'3011.2
2015-Apr-16 06:29N 44°28' W 001°39'3 2.7
2015-Apr-16 05:30N 44°26' W 001°37'0 0.3
2015-Apr-16 04:33N 44°26' W 001°37'0 0.2
2015-Apr-16 03:31N 44°26' W 001°36'0 0.1
2015-Apr-16 02:31N 44°26' W 001°36'1 0.5
2015-Apr-16 01:33N 44°26' W 001°36'0 0.3
2015-Apr-16 00:33N 44°27' W 001°37'4 2.0
2015-Apr-15 22:22N 44°25' W 001°42'6 7.0
2015-Apr-15 21:33N 44°19' W 001°41'3 2.5
2015-Apr-15 20:32N 44°20' W 001°44'2 2.2
2015-Apr-15 19:33N 44°19' W 001°41'31 7.8
2015-Apr-15 15:33N 43°48' W 001°42'9 9.3
2015-Apr-15 14:32N 43°38' W 001°44'10 9.7
2015-Apr-15 13:33N 43°29' W 001°46'6 5.8
2015-Apr-15 12:33N 43°23' W 001°47'0 0.0
2015-Apr-15 11:33N 43°23' W 001°47'0 0.1
2015-Apr-15 10:33N 43°23' W 001°48'5 5.0
2015-Apr-15 09:33N 43°28' W 001°47'10 9.5
2015-Apr-15 08:34N 43°38' W 001°45'10 9.7
2015-Apr-15 07:33N 43°47' W 001°44'10 9.9
2015-Apr-15 06:33N 43°57' W 001°43'10 9.8
2015-Apr-15 05:33N 44°07' W 001°41'9 8.9
2015-Apr-15 04:33N 44°16' W 001°41'1 0.6
2015-Apr-15 03:25N 44°15' W 001°41'2 0.5
2015-Apr-15 00:05N 44°15' W 001°43'4 1.5
2015-Apr-14 21:12N 44°12' W 001°39'0 0.2
2015-Apr-14 20:32N 44°12' W 001°39'30 2.5
2015-Apr-14 08:23N 43°44' W 001°54'10 9.0
2015-Apr-14 07:16N 43°34' W 001°58'5 1.5
2015-Apr-14 04:08N 43°29' W 001°59'5 9.3
2015-Apr-14 03:33N 43°34' W 001°55'9 9.1
2015-Apr-14 02:33N 43°42' W 001°50'9 9.2
2015-Apr-14 01:33N 43°51' W 001°46'4 3.0
2015-Apr-14 00:10N 43°55' W 001°48'30 6.1
2015-Apr-13 19:15N 43°26' W 002°01'710.4
2015-Apr-13 18:33N 43°26' W 001°51'4 3.8
2015-Apr-13 17:33N 43°23' W 001°48'0 0.0
2015-Apr-13 16:33N 43°23' W 001°48'7 7.2
2015-Apr-13 15:33N 43°24' W 001°57'5 0.7
2015-Apr-13 09:11N 43°28' W 001°55'711.0
2015-Apr-13 08:33N 43°24' W 001°47'1 0.8
2015-Apr-13 07:33N 43°23' W 001°47'  
2015-Apr-10 11:33N 43°23' W 001°47'0 0.1
2015-Apr-10 10:33N 43°23' W 001°47'0 0.0
2015-Apr-10 09:33N 43°23' W 001°47'0 0.0
2015-Apr-10 08:33N 43°23' W 001°47'0 0.0
2015-Apr-10 07:34N 43°23' W 001°47'1 1.0
2015-Apr-10 06:33N 43°24' W 001°47'10 9.9
2015-Apr-10 05:33N 43°34' W 001°47'4 1.6
2015-Apr-10 03:03N 43°38' W 001°49'0 0.4
2015-Apr-10 02:18N 43°38' W 001°49'2 2.8
2015-Apr-10 01:33N 43°40' W 001°47'2 0.3
2015-Apr-09 20:16N 43°42' W 001°48'5 7.5
2015-Apr-09 19:33N 43°36' W 001°47'1 1.4
2015-Apr-09 18:34N 43°35' W 001°46'1 1.0
2015-Apr-09 17:33N 43°35' W 001°48'5 5.3
2015-Apr-09 16:33N 43°29' W 001°46'6 0.8
2015-Apr-09 08:31N 43°23' W 001°48'0 0.0
2015-Apr-09 07:33N 43°23' W 001°48'6 5.7
2015-Apr-09 06:33N 43°29' W 001°47'10 9.9
2015-Apr-09 05:33N 43°39' W 001°48'13 3.7
2015-Apr-09 02:09N 43°51' W 001°43'0 0.1
2015-Apr-09 01:13N 43°51' W 001°43'0 0.3
2015-Apr-09 00:32N 43°51' W 001°43'0 0.4
2015-Apr-08 23:32N 43°50' W 001°43'8 4.2
2015-Apr-08 21:30N 43°43' W 001°49'1010.4
2015-Apr-08 20:32N 43°33' W 001°51'4 4.5
2015-Apr-08 19:33N 43°29' W 001°47'0 0.3
2015-Apr-08 18:33N 43°30' W 001°46'1 1.0
2015-Apr-08 17:33N 43°31' W 001°47'4 3.8
2015-Apr-08 16:33N 43°27' W 001°47'4 0.4
2015-Apr-08 07:16N 43°23' W 001°47'0 0.0
2015-Apr-08 06:33N 43°23' W 001°47'0 0.0
2015-Apr-08 05:33N 43°23' W 001°47'0 0.0
2015-Apr-08 04:33N 43°23' W 001°47'0 0.0
2015-Apr-08 03:33N 43°23' W 001°47'3 3.4
2015-Apr-08 02:33N 43°26' W 001°46'10 9.9
2015-Apr-08 01:33N 43°36' W 001°46'5 4.7
2015-Apr-08 00:33N 43°41' W 001°45'1 0.6
2015-Apr-07 23:33N 43°41' W 001°44'0 0.5
2015-Apr-07 22:31N 43°40' W 001°44'1 1.5
2015-Apr-07 21:33N 43°39' W 001°45'1 0.9
2015-Apr-07 20:33N 43°40' W 001°44'1 0.8
2015-Apr-07 19:33N 43°40' W 001°43'1 0.6
2015-Apr-07 18:33N 43°40' W 001°44'  
Track history (hours):
 
Tides and Currents Weather Stations Pressure Air Temp Water Temp Dewpoint Dewpoint Depression Visibility Wind Speed Wind Dir Waves Ship Positions

San Fermin Berria

Last reported at 2015-Apr-17 18:32 UTC. Time now 2015-Apr-19 07:55 UTC.
Position N 43°23' W 001°47'.

Length 30 m.

Type: Fishing. MMSI: 224114650.

Date/timePositionNaut miles runAvg speedWind from/ knotsBaromVisibWave heightAir tempDewpointWater temp
2015-Apr-17 18:32N 43°23' W 001°47'0 0.1
2015-Apr-17 17:33N 43°23' W 001°47'0 0.0
2015-Apr-17 16:33N 43°23' W 001°47'0 0.1
2015-Apr-17 15:33N 43°23' W 001°48'0 0.0
2015-Apr-17 14:33N 43°23' W 001°48'0 0.2
2015-Apr-17 13:33N 43°23' W 001°47'1110.8
2015-Apr-17 12:33N 43°34' W 001°47'6410.4
2015-Apr-17 06:25N 44°38' W 001°43'1 0.7
2015-Apr-17 05:33N 44°38' W 001°44'1 0.6
2015-Apr-17 04:33N 44°38' W 001°45'0 0.3
2015-Apr-17 03:33N 44°38' W 001°45'11 2.1
2015-Apr-16 22:33N 44°28' W 001°41'4510.3
2015-Apr-16 18:09N 43°42' W 001°46'610.4
2015-Apr-16 17:32N 43°36' W 001°46'1110.4
2015-Apr-16 16:31N 43°25' W 001°47'2 2.5
2015-Apr-16 15:33N 43°23' W 001°48'0 0.0
2015-Apr-16 14:33N 43°23' W 001°48'0 0.0
2015-Apr-16 13:33N 43°23' W 001°48'0 0.0
2015-Apr-16 12:33N 43°23' W 001°48'9 8.7
2015-Apr-16 11:33N 43°32' W 001°46'2611.2
2015-Apr-16 09:11N 43°58' W 001°43'3011.2
2015-Apr-16 06:29N 44°28' W 001°39'3 2.7
2015-Apr-16 05:30N 44°26' W 001°37'0 0.3
2015-Apr-16 04:33N 44°26' W 001°37'0 0.2
2015-Apr-16 03:31N 44°26' W 001°36'0 0.1
2015-Apr-16 02:31N 44°26' W 001°36'1 0.5
2015-Apr-16 01:33N 44°26' W 001°36'0 0.3
2015-Apr-16 00:33N 44°27' W 001°37'4 2.0
2015-Apr-15 22:22N 44°25' W 001°42'6 7.0
2015-Apr-15 21:33N 44°19' W 001°41'3 2.5
2015-Apr-15 20:32N 44°20' W 001°44'2 2.2
2015-Apr-15 19:33N 44°19' W 001°41'31 7.8
2015-Apr-15 15:33N 43°48' W 001°42'9 9.3
2015-Apr-15 14:32N 43°38' W 001°44'10 9.7
2015-Apr-15 13:33N 43°29' W 001°46'6 5.8
2015-Apr-15 12:33N 43°23' W 001°47'0 0.0
2015-Apr-15 11:33N 43°23' W 001°47'0 0.1
2015-Apr-15 10:33N 43°23' W 001°48'5 5.0
2015-Apr-15 09:33N 43°28' W 001°47'10 9.5
2015-Apr-15 08:34N 43°38' W 001°45'10 9.7
2015-Apr-15 07:33N 43°47' W 001°44'10 9.9
2015-Apr-15 06:33N 43°57' W 001°43'10 9.8
2015-Apr-15 05:33N 44°07' W 001°41'9 8.9
2015-Apr-15 04:33N 44°16' W 001°41'1 0.6
2015-Apr-15 03:25N 44°15' W 001°41'2 0.5
2015-Apr-15 00:05N 44°15' W 001°43'4 1.5
2015-Apr-14 21:12N 44°12' W 001°39'0 0.2
2015-Apr-14 20:32N 44°12' W 001°39'30 2.5
2015-Apr-14 08:23N 43°44' W 001°54'10 9.0
2015-Apr-14 07:16N 43°34' W 001°58'5 1.5
2015-Apr-14 04:08N 43°29' W 001°59'5 9.3
2015-Apr-14 03:33N 43°34' W 001°55'9 9.1
2015-Apr-14 02:33N 43°42' W 001°50'9 9.2
2015-Apr-14 01:33N 43°51' W 001°46'4 3.0
2015-Apr-14 00:10N 43°55' W 001°48'30 6.1
2015-Apr-13 19:15N 43°26' W 002°01'710.4
2015-Apr-13 18:33N 43°26' W 001°51'4 3.8
2015-Apr-13 17:33N 43°23' W 001°48'0 0.0
2015-Apr-13 16:33N 43°23' W 001°48'7 7.2
2015-Apr-13 15:33N 43°24' W 001°57'5 0.7
2015-Apr-13 09:11N 43°28' W 001°55'711.0
2015-Apr-13 08:33N 43°24' W 001°47'1 0.8
2015-Apr-13 07:33N 43°23' W 001°47'  
2015-Apr-10 11:33N 43°23' W 001°47'0 0.1
2015-Apr-10 10:33N 43°23' W 001°47'0 0.0
2015-Apr-10 09:33N 43°23' W 001°47'0 0.0
2015-Apr-10 08:33N 43°23' W 001°47'0 0.0
2015-Apr-10 07:34N 43°23' W 001°47'1 1.0
2015-Apr-10 06:33N 43°24' W 001°47'10 9.9
2015-Apr-10 05:33N 43°34' W 001°47'4 1.6
2015-Apr-10 03:03N 43°38' W 001°49'0 0.4
2015-Apr-10 02:18N 43°38' W 001°49'2 2.8
2015-Apr-10 01:33N 43°40' W 001°47'2 0.3
2015-Apr-09 20:16N 43°42' W 001°48'5 7.5
2015-Apr-09 19:33N 43°36' W 001°47'1 1.4
2015-Apr-09 18:34N 43°35' W 001°46'1 1.0
2015-Apr-09 17:33N 43°35' W 001°48'5 5.3
2015-Apr-09 16:33N 43°29' W 001°46'6 0.8
2015-Apr-09 08:31N 43°23' W 001°48'0 0.0
2015-Apr-09 07:33N 43°23' W 001°48'6 5.7
2015-Apr-09 06:33N 43°29' W 001°47'10 9.9
2015-Apr-09 05:33N 43°39' W 001°48'13 3.7
2015-Apr-09 02:09N 43°51' W 001°43'0 0.1
2015-Apr-09 01:13N 43°51' W 001°43'0 0.3
2015-Apr-09 00:32N 43°51' W 001°43'0 0.4
2015-Apr-08 23:32N 43°50' W 001°43'8 4.2
2015-Apr-08 21:30N 43°43' W 001°49'1010.4
2015-Apr-08 20:32N 43°33' W 001°51'4 4.5
2015-Apr-08 19:33N 43°29' W 001°47'0 0.3
2015-Apr-08 18:33N 43°30' W 001°46'1 1.0
2015-Apr-08 17:33N 43°31' W 001°47'4 3.8
2015-Apr-08 16:33N 43°27' W 001°47'4 0.4
2015-Apr-08 07:16N 43°23' W 001°47'0 0.0
2015-Apr-08 06:33N 43°23' W 001°47'0 0.0
2015-Apr-08 05:33N 43°23' W 001°47'0 0.0
2015-Apr-08 04:33N 43°23' W 001°47'0 0.0
2015-Apr-08 03:33N 43°23' W 001°47'3 3.4
2015-Apr-08 02:33N 43°26' W 001°46'10 9.9
2015-Apr-08 01:33N 43°36' W 001°46'5 4.7
2015-Apr-08 00:33N 43°41' W 001°45'1 0.6
2015-Apr-07 23:33N 43°41' W 001°44'0 0.5
2015-Apr-07 22:31N 43°40' W 001°44'1 1.5
2015-Apr-07 21:33N 43°39' W 001°45'1 0.9
2015-Apr-07 20:33N 43°40' W 001°44'1 0.8
2015-Apr-07 19:33N 43°40' W 001°43'1 0.6
2015-Apr-07 18:33N 43°40' W 001°44'  

Dump ship's entire track history